createdAt,value
2017-07-27T16:24:17.309Z,100207.29
2017-07-27T16:26:44.985Z,100200.72
2017-07-27T16:29:12.625Z,100197.95
2017-07-27T16:31:40.291Z,100200.32
2017-07-27T16:34:07.910Z,100190.64
2017-07-27T16:36:35.561Z,100188.98
2017-07-27T16:39:03.151Z,100191.83
2017-07-27T16:41:30.988Z,100189.58
2017-07-27T16:43:58.597Z,100190.54
2017-07-27T16:46:26.238Z,100192.82
2017-07-27T16:48:54.168Z,100186.64
2017-07-27T16:51:21.812Z,100185.68
2017-07-27T16:53:49.412Z,100186.05
2017-07-27T16:56:17.033Z,100190.05
2017-07-27T16:58:44.744Z,100191.31
2017-07-27T17:01:12.379Z,100186.13
2017-07-27T17:03:40.007Z,100194.23
2017-07-27T17:06:07.647Z,100194.71
2017-07-27T17:08:35.258Z,100197.50
2017-07-27T17:11:02.905Z,100183.84
2017-07-27T17:13:30.507Z,100187.89
2017-07-27T17:15:58.191Z,100191.80
2017-07-27T17:18:25.800Z,100192.11
2017-07-27T17:20:53.462Z,100193.20
2017-07-27T17:23:21.108Z,100195.36
2017-07-27T17:25:48.714Z,100190.20
2017-07-27T17:28:16.381Z,100189.10
2017-07-27T17:30:44.064Z,100181.62
2017-07-27T17:33:11.662Z,100182.53
2017-07-27T17:35:39.266Z,100187.55
2017-07-27T17:38:06.945Z,100181.16
2017-07-27T17:40:34.570Z,100183.41
2017-07-27T17:43:02.223Z,100185.03
2017-07-27T17:45:29.817Z,100182.66
2017-07-27T17:47:57.491Z,100192.17
2017-07-27T17:50:25.202Z,100193.74
2017-07-27T17:52:52.834Z,100196.77
2017-07-27T17:55:20.445Z,100197.63
2017-07-27T17:57:48.105Z,100201.52
2017-07-27T18:00:15.712Z,100206.54
2017-07-27T18:02:43.341Z,100207.80
2017-07-27T18:05:10.954Z,100202.98
2017-07-27T18:07:38.627Z,100207.81
2017-07-27T18:10:06.238Z,100207.52
2017-07-27T18:12:33.891Z,100210.67
2017-07-27T18:15:01.483Z,100216.00
2017-07-27T18:17:29.104Z,100220.16
2017-07-27T18:19:56.776Z,100220.33
2017-07-27T18:22:24.419Z,100221.11
2017-07-27T18:24:51.984Z,100218.33
2017-07-27T18:27:19.623Z,100217.72
2017-07-27T18:29:47.262Z,100214.66
2017-07-27T18:32:14.924Z,100216.25
2017-07-27T18:34:42.522Z,100219.00
2017-07-27T18:37:10.134Z,100222.36
2017-07-27T18:39:37.863Z,100221.06
2017-07-27T18:42:05.499Z,100225.45
2017-07-27T18:44:33.151Z,100217.80
2017-07-27T18:47:00.863Z,100214.25
2017-07-27T18:49:28.528Z,100220.11
2017-07-27T18:51:56.138Z,100221.02
2017-07-27T18:54:23.812Z,100230.97
2017-07-27T18:56:51.423Z,100227.11
2017-07-27T18:59:19.093Z,100229.89
2017-07-27T19:01:46.727Z,100225.80
2017-07-27T19:04:14.486Z,100230.50
2017-07-27T19:06:42.153Z,100221.20
2017-07-27T19:09:09.798Z,100221.89
2017-07-27T19:11:37.409Z,100225.03
2017-07-27T19:14:05.176Z,100225.34
2017-07-27T19:16:32.886Z,100223.45
2017-07-27T19:19:00.657Z,100226.35
2017-07-27T19:21:28.264Z,100228.48
2017-07-27T19:23:55.908Z,100236.49
2017-07-27T19:26:23.473Z,100234.58
2017-07-27T19:28:51.104Z,100230.78
2017-07-27T19:31:18.702Z,100229.97
2017-07-27T19:33:46.426Z,100232.92
2017-07-27T19:36:14.059Z,100231.56
2017-07-27T19:38:41.755Z,100231.14
2017-07-27T19:41:09.343Z,100235.53
2017-07-27T19:43:36.996Z,100236.31
2017-07-27T19:46:04.615Z,100228.45
2017-07-27T19:48:32.209Z,100239.36
2017-07-27T19:50:59.857Z,100235.83
2017-07-27T19:53:27.658Z,100243.48
2017-07-27T19:55:55.295Z,100243.31
2017-07-27T19:58:22.947Z,100243.59
2017-07-27T20:00:50.541Z,100242.38
2017-07-27T20:03:18.259Z,100245.95
2017-07-27T20:05:46.206Z,100246.84
2017-07-27T20:08:13.868Z,100250.67
2017-07-27T20:10:41.536Z,100260.28
2017-07-27T20:13:09.164Z,100265.50
2017-07-27T20:15:36.846Z,100260.33
2017-07-27T20:18:04.463Z,100265.30
2017-07-27T20:20:32.136Z,100264.91
2017-07-27T20:22:59.771Z,100263.02
2017-07-27T20:25:27.440Z,100264.03
2017-07-27T20:27:55.043Z,100268.30
2017-07-27T20:30:22.724Z,100265.86
2017-07-27T20:32:50.356Z,100269.45
2017-07-27T20:35:18.017Z,100271.22
2017-07-27T20:37:45.798Z,100267.65
2017-07-27T20:40:14.512Z,100267.97
2017-07-27T20:42:42.155Z,100270.06
2017-07-27T20:45:09.799Z,100274.23
2017-07-27T20:47:38.271Z,100274.91
2017-07-27T20:50:05.899Z,100281.30
2017-07-27T20:52:34.183Z,100287.53
2017-07-27T20:55:01.819Z,100284.01
2017-07-27T20:57:30.261Z,100291.30
2017-07-27T20:59:57.903Z,100285.98
2017-07-27T21:02:25.585Z,100288.13
2017-07-27T21:04:54.094Z,100292.84
2017-07-27T21:07:21.821Z,100299.58
2017-07-27T21:09:49.461Z,100302.23
2017-07-27T21:12:17.798Z,100299.00
2017-07-27T21:14:45.566Z,100299.13
2017-07-27T21:17:13.598Z,100300.05
2017-07-27T21:19:41.272Z,100299.92
2017-07-27T21:22:09.076Z,100305.17
2017-07-27T21:24:36.770Z,100311.70
2017-07-27T21:27:04.394Z,100309.88
2017-07-27T21:29:32.066Z,100312.19
2017-07-27T21:31:59.736Z,100310.11
2017-07-27T21:34:27.468Z,100313.41
2017-07-27T21:36:55.589Z,100318.02
2017-07-27T21:39:23.669Z,100320.98
2017-07-27T21:41:51.619Z,100325.30
2017-07-27T21:44:19.507Z,100320.89
2017-07-27T21:46:47.257Z,100326.30
2017-07-27T21:49:14.908Z,100331.87
2017-07-27T21:51:42.613Z,100334.12
2017-07-27T21:54:10.298Z,100334.51
2017-07-27T21:56:38.089Z,100333.31
2017-07-27T22:01:55.963Z,100334.23
2017-07-27T22:04:24.596Z,100335.43
2017-07-27T22:06:52.367Z,100337.02
2017-07-27T22:09:19.999Z,100335.50
2017-07-27T22:11:47.747Z,100340.84
2017-07-27T22:14:15.400Z,100334.98
2017-07-27T22:16:43.185Z,100340.82
2017-07-27T22:19:11.894Z,100347.00
2017-07-27T22:21:39.697Z,100349.14
2017-07-27T22:24:07.554Z,100348.33
2017-07-27T22:26:35.724Z,100352.69
2017-07-27T22:29:03.367Z,100358.95
2017-07-27T22:31:31.025Z,100356.77
2017-07-27T22:33:58.693Z,100367.06
2017-07-27T22:36:26.339Z,100366.98
2017-07-27T22:38:54.356Z,100373.38
2017-07-27T22:41:22.060Z,100368.53
2017-07-27T22:43:49.750Z,100374.29
2017-07-27T22:46:17.365Z,100374.09
2017-07-27T22:48:45.061Z,100372.28
2017-07-27T22:51:12.688Z,100367.56
2017-07-27T22:53:40.337Z,100369.84
2017-07-27T22:56:08.036Z,100372.05
2017-07-27T22:58:35.722Z,100374.95
2017-07-27T23:01:03.343Z,100377.55
2017-07-27T23:03:31.003Z,100380.03
2017-07-27T23:05:58.611Z,100379.86
2017-07-27T23:08:26.300Z,100380.11
2017-07-27T23:10:53.908Z,100381.48
2017-07-27T23:13:21.588Z,100382.39
2017-07-27T23:15:49.214Z,100384.97
2017-07-27T23:18:17.699Z,100388.08
2017-07-27T23:20:45.328Z,100395.04
2017-07-27T23:23:13.036Z,100397.61
2017-07-27T23:25:40.780Z,100393.78
2017-07-27T23:28:08.422Z,100396.75
2017-07-27T23:30:36.579Z,100399.98
2017-07-27T23:33:04.232Z,100396.95
2017-07-27T23:35:32.847Z,100403.33
2017-07-27T23:38:00.501Z,100402.71
2017-07-27T23:40:28.157Z,100403.55
2017-07-27T23:42:56.248Z,100410.10
2017-07-27T23:45:23.938Z,100413.72
2017-07-27T23:47:51.626Z,100420.67
2017-07-27T23:50:21.502Z,100413.27
2017-07-27T23:52:49.310Z,100414.41
2017-07-27T23:55:16.941Z,100416.88
2017-07-27T23:57:44.919Z,100422.23
